Terminal Aerodrome Forecast
Issued by NWS Tulsa, OK

Home | Current Version | Previous Version | Text Only | Print | Product List | Glossary On
Versions: 1 2 3 4 5 6 7 8 9 10 11 12 13 14
000
FTUS44 KTSA 181125
TAFFSM
TAF
KFSM 181125Z 1812/1912 10003KT P6SM SKC
      TEMPO 1812/1815 5SM -RA BR BKN040
     FM181600 08004KT P6SM OVC025
     FM182100 09005KT 4SM BR BKN007=

USA.gov is the U.S. government's official web portal to all federal, state and local government web resources and services.